KCLE

Cleveland-Hopkins International Airport

Cleveland, Ohio, USA
METAR KCLE 241251Z 00000KT 10SM FEW250 19/13 A3026 RMK AO2 SLP243 T01890133 $
Observed Flight Rules
May-24 @ 12:51 UTC (an hour ago) Visual Flight Rules
Visibility Clouds
10 miles
  • Few at 25,000' AGL
Temperatures Readings
Current 19°C / 66°F
Dewpoint 13°C / 55°F
Humidity 68%
Altimeter 30.26" Hg
Pressure 1024.3 hPa
Elevation 233
METAR KCLE 241251Z 00000KT 10SM FEW250 19/13 A3026 RMK AO2 SLP243 T01890133 $
Observed Flight Rules
May-24 @ 12:51 UTC
(an hour ago)
VFR
Clouds
  • Few at 25,000' AGL
Temperature Dewpoint
19°C / 66°F 13°C / 55°F
Humidity Altimeter Pressure
68% 30.26" Hg 1024.3 hPa